sensor_id;sensor_type;location;lat;lon;timestamp;P1;durP1;ratioP1;P2;durP2;ratioP2
23642;SDS011;11998;55.788;37.572;2023-04-21T00:00:45;8.47;;;3.60;;
23642;SDS011;11998;55.788;37.572;2023-04-21T00:01:48;8.60;;;3.73;;
23642;SDS011;11998;55.788;37.572;2023-04-21T00:02:48;8.77;;;3.43;;
23642;SDS011;11998;55.788;37.572;2023-04-21T00:03:49;6.27;;;3.30;;
23642;SDS011;11998;55.788;37.572;2023-04-21T00:04:52;5.93;;;3.43;;
23642;SDS011;11998;55.788;37.572;2023-04-21T00:05:55;6.00;;;3.53;;
23642;SDS011;11998;55.788;37.572;2023-04-21T00:06:57;8.73;;;5.63;;
23642;SDS011;11998;55.788;37.572;2023-04-21T00:08:03;8.70;;;5.80;;
23642;SDS011;11998;55.788;37.572;2023-04-21T00:09:07;17.17;;;12.47;;
23642;SDS011;11998;55.788;37.572;2023-04-21T00:10:08;5.77;;;4.00;;
23642;SDS011;11998;55.788;37.572;2023-04-21T00:11:09;8.27;;;5.70;;
23642;SDS011;11998;55.788;37.572;2023-04-21T00:12:10;5.03;;;3.67;;
23642;SDS011;11998;55.788;37.572;2023-04-21T00:13:11;7.50;;;4.47;;
23642;SDS011;11998;55.788;37.572;2023-04-21T00:14:11;7.20;;;3.87;;
23642;SDS011;11998;55.788;37.572;2023-04-21T00:15:12;5.83;;;3.50;;
23642;SDS011;11998;55.788;37.572;2023-04-21T00:16:13;4.53;;;3.13;;
23642;SDS011;11998;55.788;37.572;2023-04-21T00:17:13;7.40;;;3.63;;
23642;SDS011;11998;55.788;37.572;2023-04-21T00:18:14;4.50;;;3.20;;
23642;SDS011;11998;55.788;37.572;2023-04-21T00:19:15;7.60;;;3.17;;
23642;SDS011;11998;55.788;37.572;2023-04-21T00:20:16;7.00;;;3.67;;
23642;SDS011;11998;55.788;37.572;2023-04-21T00:21:17;8.40;;;3.63;;
23642;SDS011;11998;55.788;37.572;2023-04-21T00:22:18;5.23;;;3.60;;
23642;SDS011;11998;55.788;37.572;2023-04-21T00:23:18;7.30;;;3.27;;
23642;SDS011;11998;55.788;37.572;2023-04-21T00:24:19;8.10;;;3.33;;
23642;SDS011;11998;55.788;37.572;2023-04-21T00:25:22;6.00;;;3.37;;
23642;SDS011;11998;55.788;37.572;2023-04-21T00:26:24;8.83;;;4.00;;
23642;SDS011;11998;55.788;37.572;2023-04-21T00:27:24;5.73;;;3.80;;
23642;SDS011;11998;55.788;37.572;2023-04-21T00:28:28;9.90;;;3.30;;
23642;SDS011;11998;55.788;37.572;2023-04-21T00:29:29;6.27;;;3.13;;
23642;SDS011;11998;55.788;37.572;2023-04-21T00:30:30;6.50;;;3.43;;
23642;SDS011;11998;55.788;37.572;2023-04-21T00:31:33;5.43;;;3.87;;
23642;SDS011;11998;55.788;37.572;2023-04-21T00:32:33;9.40;;;3.50;;
23642;SDS011;11998;55.788;37.572;2023-04-21T00:33:34;6.77;;;3.17;;
23642;SDS011;11998;55.788;37.572;2023-04-21T00:34:34;5.53;;;3.60;;
23642;SDS011;11998;55.788;37.572;2023-04-21T00:35:35;7.30;;;3.80;;
23642;SDS011;11998;55.788;37.572;2023-04-21T00:36:36;4.87;;;3.40;;
23642;SDS011;11998;55.788;37.572;2023-04-21T00:37:36;9.03;;;3.80;;
23642;SDS011;11998;55.788;37.572;2023-04-21T00:38:37;5.10;;;3.30;;
23642;SDS011;11998;55.788;37.572;2023-04-21T00:39:37;5.57;;;3.87;;
23642;SDS011;11998;55.788;37.572;2023-04-21T00:40:38;4.97;;;3.53;;
23642;SDS011;11998;55.788;37.572;2023-04-21T00:41:38;10.40;;;3.70;;
23642;SDS011;11998;55.788;37.572;2023-04-21T00:42:40;5.17;;;3.10;;
23642;SDS011;11998;55.788;37.572;2023-04-21T00:45:05;4.50;;;3.10;;
23642;SDS011;11998;55.788;37.572;2023-04-21T00:46:05;4.97;;;3.10;;
23642;SDS011;11998;55.788;37.572;2023-04-21T00:47:08;4.83;;;3.23;;
23642;SDS011;11998;55.788;37.572;2023-04-21T00:48:09;14.70;;;8.87;;
23642;SDS011;11998;55.788;37.572;2023-04-21T00:49:10;12.60;;;7.23;;
23642;SDS011;11998;55.788;37.572;2023-04-21T00:50:12;9.10;;;4.83;;
23642;SDS011;11998;55.788;37.572;2023-04-21T00:51:13;8.53;;;4.03;;
23642;SDS011;11998;55.788;37.572;2023-04-21T00:52:14;4.73;;;3.50;;
23642;SDS011;11998;55.788;37.572;2023-04-21T00:53:16;8.27;;;4.13;;
23642;SDS011;11998;55.788;37.572;2023-04-21T00:54:18;6.10;;;3.57;;
23642;SDS011;11998;55.788;37.572;2023-04-21T00:55:19;5.83;;;3.63;;
23642;SDS011;11998;55.788;37.572;2023-04-21T00:56:19;4.73;;;3.33;;
23642;SDS011;11998;55.788;37.572;2023-04-21T00:57:21;6.97;;;3.80;;
23642;SDS011;11998;55.788;37.572;2023-04-21T00:58:25;5.93;;;3.17;;
23642;SDS011;11998;55.788;37.572;2023-04-21T00:59:26;5.60;;;3.83;;
23642;SDS011;11998;55.788;37.572;2023-04-21T01:00:27;13.50;;;4.03;;
23642;SDS011;11998;55.788;37.572;2023-04-21T01:01:28;7.10;;;4.10;;
23642;SDS011;11998;55.788;37.572;2023-04-21T01:02:31;7.20;;;4.33;;
23642;SDS011;11998;55.788;37.572;2023-04-21T01:03:33;5.03;;;3.30;;
23642;SDS011;11998;55.788;37.572;2023-04-21T01:04:34;6.47;;;3.60;;
23642;SDS011;11998;55.788;37.572;2023-04-21T01:05:38;5.73;;;3.40;;
23642;SDS011;11998;55.788;37.572;2023-04-21T01:06:41;6.90;;;3.67;;
23642;SDS011;11998;55.788;37.572;2023-04-21T01:07:42;6.97;;;3.50;;
23642;SDS011;11998;55.788;37.572;2023-04-21T01:08:46;5.10;;;3.67;;
23642;SDS011;11998;55.788;37.572;2023-04-21T01:09:47;5.53;;;3.30;;
23642;SDS011;11998;55.788;37.572;2023-04-21T01:10:50;6.07;;;3.63;;
23642;SDS011;11998;55.788;37.572;2023-04-21T01:13:04;5.03;;;3.50;;
23642;SDS011;11998;55.788;37.572;2023-04-21T01:14:05;6.63;;;3.70;;
23642;SDS011;11998;55.788;37.572;2023-04-21T01:15:06;5.47;;;3.87;;
23642;SDS011;11998;55.788;37.572;2023-04-21T01:16:07;9.40;;;3.27;;
23642;SDS011;11998;55.788;37.572;2023-04-21T01:17:08;7.33;;;3.20;;
23642;SDS011;11998;55.788;37.572;2023-04-21T01:18:09;7.37;;;4.03;;
23642;SDS011;11998;55.788;37.572;2023-04-21T01:19:10;5.13;;;3.70;;
23642;SDS011;11998;55.788;37.572;2023-04-21T01:20:12;6.57;;;3.53;;
23642;SDS011;11998;55.788;37.572;2023-04-21T01:21:14;7.63;;;3.53;;
23642;SDS011;11998;55.788;37.572;2023-04-21T01:22:15;7.03;;;3.43;;
23642;SDS011;11998;55.788;37.572;2023-04-21T01:23:17;4.13;;;3.07;;
23642;SDS011;11998;55.788;37.572;2023-04-21T01:24:18;4.73;;;3.30;;
23642;SDS011;11998;55.788;37.572;2023-04-21T01:25:19;6.93;;;3.53;;
23642;SDS011;11998;55.788;37.572;2023-04-21T01:26:22;5.93;;;3.27;;
23642;SDS011;11998;55.788;37.572;2023-04-21T01:27:22;5.07;;;3.33;;
23642;SDS011;11998;55.788;37.572;2023-04-21T01:28:25;5.33;;;3.07;;
23642;SDS011;11998;55.788;37.572;2023-04-21T01:29:26;4.67;;;3.10;;
23642;SDS011;11998;55.788;37.572;2023-04-21T01:30:27;5.00;;;3.10;;
23642;SDS011;11998;55.788;37.572;2023-04-21T01:31:27;5.33;;;3.37;;
23642;SDS011;11998;55.788;37.572;2023-04-21T01:32:28;5.93;;;3.60;;
23642;SDS011;11998;55.788;37.572;2023-04-21T01:33:36;7.50;;;3.23;;
23642;SDS011;11998;55.788;37.572;2023-04-21T01:35:11;5.27;;;3.17;;
23642;SDS011;11998;55.788;37.572;2023-04-21T01:36:12;5.23;;;3.60;;
23642;SDS011;11998;55.788;37.572;2023-04-21T01:37:14;4.27;;;3.10;;
23642;SDS011;11998;55.788;37.572;2023-04-21T01:38:17;8.00;;;3.50;;
23642;SDS011;11998;55.788;37.572;2023-04-21T01:39:18;5.73;;;3.87;;
23642;SDS011;11998;55.788;37.572;2023-04-21T01:40:18;9.40;;;3.90;;
23642;SDS011;11998;55.788;37.572;2023-04-21T01:41:19;6.50;;;3.77;;
23642;SDS011;11998;55.788;37.572;2023-04-21T01:42:21;4.90;;;3.37;;
23642;SDS011;11998;55.788;37.572;2023-04-21T01:43:24;8.27;;;3.40;;
23642;SDS011;11998;55.788;37.572;2023-04-21T01:44:25;8.27;;;3.53;;
23642;SDS011;11998;55.788;37.572;2023-04-21T01:45:25;6.27;;;3.37;;
23642;SDS011;11998;55.788;37.572;2023-04-21T01:46:26;6.93;;;3.17;;
23642;SDS011;11998;55.788;37.572;2023-04-21T01:47:27;9.40;;;3.77;;
23642;SDS011;11998;55.788;37.572;2023-04-21T01:48:27;9.47;;;3.60;;
23642;SDS011;11998;55.788;37.572;2023-04-21T01:49:28;7.70;;;3.57;;
23642;SDS011;11998;55.788;37.572;2023-04-21T01:50:28;10.17;;;3.87;;
23642;SDS011;11998;55.788;37.572;2023-04-21T01:51:29;9.03;;;3.93;;
23642;SDS011;11998;55.788;37.572;2023-04-21T01:52:30;5.00;;;3.27;;
23642;SDS011;11998;55.788;37.572;2023-04-21T01:53:31;9.10;;;3.57;;
23642;SDS011;11998;55.788;37.572;2023-04-21T01:54:31;10.63;;;3.60;;
23642;SDS011;11998;55.788;37.572;2023-04-21T01:55:32;7.30;;;3.90;;
23642;SDS011;11998;55.788;37.572;2023-04-21T01:56:32;9.70;;;3.87;;
23642;SDS011;11998;55.788;37.572;2023-04-21T01:57:33;12.17;;;3.90;;
23642;SDS011;11998;55.788;37.572;2023-04-21T01:58:34;9.40;;;3.90;;
23642;SDS011;11998;55.788;37.572;2023-04-21T01:59:34;7.00;;;3.50;;
23642;SDS011;11998;55.788;37.572;2023-04-21T02:00:35;8.73;;;4.00;;
23642;SDS011;11998;55.788;37.572;2023-04-21T02:01:35;9.03;;;3.57;;
23642;SDS011;11998;55.788;37.572;2023-04-21T02:02:36;8.23;;;4.10;;
23642;SDS011;11998;55.788;37.572;2023-04-21T02:03:39;6.87;;;4.30;;
23642;SDS011;11998;55.788;37.572;2023-04-21T02:04:39;10.73;;;3.73;;
23642;SDS011;11998;55.788;37.572;2023-04-21T02:05:40;9.53;;;4.20;;
23642;SDS011;11998;55.788;37.572;2023-04-21T02:06:43;7.53;;;3.97;;
23642;SDS011;11998;55.788;37.572;2023-04-21T02:07:44;9.57;;;3.30;;
23642;SDS011;11998;55.788;37.572;2023-04-21T02:08:44;7.57;;;4.40;;
23642;SDS011;11998;55.788;37.572;2023-04-21T02:09:45;10.33;;;3.67;;
23642;SDS011;11998;55.788;37.572;2023-04-21T02:10:45;6.53;;;3.77;;
23642;SDS011;11998;55.788;37.572;2023-04-21T02:11:46;9.93;;;4.17;;
23642;SDS011;11998;55.788;37.572;2023-04-21T02:12:46;10.67;;;3.93;;
23642;SDS011;11998;55.788;37.572;2023-04-21T02:13:47;12.37;;;4.23;;
23642;SDS011;11998;55.788;37.572;2023-04-21T02:14:47;8.40;;;4.40;;
23642;SDS011;11998;55.788;37.572;2023-04-21T02:15:48;7.50;;;3.33;;
23642;SDS011;11998;55.788;37.572;2023-04-21T02:16:49;14.17;;;3.83;;
23642;SDS011;11998;55.788;37.572;2023-04-21T02:17:49;8.93;;;3.60;;
23642;SDS011;11998;55.788;37.572;2023-04-21T02:18:51;12.87;;;4.17;;
23642;SDS011;11998;55.788;37.572;2023-04-21T02:19:52;15.57;;;4.97;;
23642;SDS011;11998;55.788;37.572;2023-04-21T02:20:53;8.60;;;4.30;;
23642;SDS011;11998;55.788;37.572;2023-04-21T02:21:55;15.13;;;4.23;;
23642;SDS011;11998;55.788;37.572;2023-04-21T02:22:55;10.80;;;3.90;;
23642;SDS011;11998;55.788;37.572;2023-04-21T02:23:59;12.53;;;3.97;;
23642;SDS011;11998;55.788;37.572;2023-04-21T02:24:59;11.87;;;4.43;;
23642;SDS011;11998;55.788;37.572;2023-04-21T02:26:00;10.00;;;4.10;;
23642;SDS011;11998;55.788;37.572;2023-04-21T02:27:00;12.73;;;4.10;;
23642;SDS011;11998;55.788;37.572;2023-04-21T02:28:01;11.07;;;3.90;;
23642;SDS011;11998;55.788;37.572;2023-04-21T02:29:02;16.17;;;4.40;;
23642;SDS011;11998;55.788;37.572;2023-04-21T02:30:02;8.07;;;3.70;;
23642;SDS011;11998;55.788;37.572;2023-04-21T02:31:04;11.87;;;4.17;;
23642;SDS011;11998;55.788;37.572;2023-04-21T02:32:04;7.93;;;3.80;;
23642;SDS011;11998;55.788;37.572;2023-04-21T02:33:05;17.77;;;4.63;;
23642;SDS011;11998;55.788;37.572;2023-04-21T02:34:06;13.37;;;3.77;;
23642;SDS011;11998;55.788;37.572;2023-04-21T02:35:07;11.63;;;3.80;;
23642;SDS011;11998;55.788;37.572;2023-04-21T02:36:08;11.57;;;4.10;;
23642;SDS011;11998;55.788;37.572;2023-04-21T02:37:08;10.43;;;4.03;;
23642;SDS011;11998;55.788;37.572;2023-04-21T02:38:09;12.50;;;4.30;;
23642;SDS011;11998;55.788;37.572;2023-04-21T02:39:10;17.30;;;4.37;;
23642;SDS011;11998;55.788;37.572;2023-04-21T02:40:11;13.50;;;4.30;;
23642;SDS011;11998;55.788;37.572;2023-04-21T02:41:12;11.63;;;4.40;;
23642;SDS011;11998;55.788;37.572;2023-04-21T02:42:13;15.53;;;4.27;;
23642;SDS011;11998;55.788;37.572;2023-04-21T02:43:13;14.27;;;4.20;;
23642;SDS011;11998;55.788;37.572;2023-04-21T02:44:14;10.97;;;4.40;;
23642;SDS011;11998;55.788;37.572;2023-04-21T02:45:14;12.83;;;3.87;;
23642;SDS011;11998;55.788;37.572;2023-04-21T02:46:15;10.07;;;4.17;;
23642;SDS011;11998;55.788;37.572;2023-04-21T02:47:15;12.73;;;3.90;;
23642;SDS011;11998;55.788;37.572;2023-04-21T02:48:16;7.57;;;3.80;;
23642;SDS011;11998;55.788;37.572;2023-04-21T02:49:21;12.20;;;4.30;;
23642;SDS011;11998;55.788;37.572;2023-04-21T02:50:22;12.70;;;4.20;;
23642;SDS011;11998;55.788;37.572;2023-04-21T02:51:23;16.60;;;4.00;;
23642;SDS011;11998;55.788;37.572;2023-04-21T02:52:23;14.53;;;4.30;;
23642;SDS011;11998;55.788;37.572;2023-04-21T02:53:24;10.57;;;3.80;;
23642;SDS011;11998;55.788;37.572;2023-04-21T02:54:25;9.60;;;3.93;;
23642;SDS011;11998;55.788;37.572;2023-04-21T02:55:25;8.57;;;4.00;;
23642;SDS011;11998;55.788;37.572;2023-04-21T02:56:26;9.07;;;3.60;;
23642;SDS011;11998;55.788;37.572;2023-04-21T02:57:26;7.47;;;3.20;;
23642;SDS011;11998;55.788;37.572;2023-04-21T02:58:27;13.40;;;3.43;;
23642;SDS011;11998;55.788;37.572;2023-04-21T02:59:28;9.70;;;3.70;;
23642;SDS011;11998;55.788;37.572;2023-04-21T03:00:31;10.37;;;3.23;;
23642;SDS011;11998;55.788;37.572;2023-04-21T03:01:32;7.97;;;3.50;;
23642;SDS011;11998;55.788;37.572;2023-04-21T03:02:33;9.20;;;3.67;;
23642;SDS011;11998;55.788;37.572;2023-04-21T03:03:33;5.83;;;3.30;;
23642;SDS011;11998;55.788;37.572;2023-04-21T03:04:35;12.53;;;3.30;;
23642;SDS011;11998;55.788;37.572;2023-04-21T03:05:36;14.80;;;4.13;;
23642;SDS011;11998;55.788;37.572;2023-04-21T03:06:37;10.80;;;3.93;;
23642;SDS011;11998;55.788;37.572;2023-04-21T03:07:40;7.93;;;3.47;;
23642;SDS011;11998;55.788;37.572;2023-04-21T03:08:41;7.00;;;3.57;;
23642;SDS011;11998;55.788;37.572;2023-04-21T03:09:44;10.17;;;3.30;;
23642;SDS011;11998;55.788;37.572;2023-04-21T03:10:45;6.37;;;3.33;;
23642;SDS011;11998;55.788;37.572;2023-04-21T03:11:45;8.70;;;3.83;;
23642;SDS011;11998;55.788;37.572;2023-04-21T03:12:46;7.93;;;3.67;;
23642;SDS011;11998;55.788;37.572;2023-04-21T03:13:46;9.93;;;3.67;;
23642;SDS011;11998;55.788;37.572;2023-04-21T03:14:47;7.23;;;3.83;;
23642;SDS011;11998;55.788;37.572;2023-04-21T03:15:47;6.67;;;3.37;;
23642;SDS011;11998;55.788;37.572;2023-04-21T03:16:48;9.33;;;3.90;;
23642;SDS011;11998;55.788;37.572;2023-04-21T03:17:49;12.63;;;4.13;;
23642;SDS011;11998;55.788;37.572;2023-04-21T03:18:49;13.83;;;4.00;;
23642;SDS011;11998;55.788;37.572;2023-04-21T03:19:50;10.20;;;4.20;;
23642;SDS011;11998;55.788;37.572;2023-04-21T03:20:50;10.47;;;3.70;;
23642;SDS011;11998;55.788;37.572;2023-04-21T03:21:51;11.43;;;4.13;;
23642;SDS011;11998;55.788;37.572;2023-04-21T03:22:52;6.10;;;3.50;;
23642;SDS011;11998;55.788;37.572;2023-04-21T03:23:53;9.17;;;3.90;;
23642;SDS011;11998;55.788;37.572;2023-04-21T03:24:53;10.30;;;3.90;;
23642;SDS011;11998;55.788;37.572;2023-04-21T03:25:54;8.03;;;3.60;;
23642;SDS011;11998;55.788;37.572;2023-04-21T03:26:54;9.07;;;3.77;;
23642;SDS011;11998;55.788;37.572;2023-04-21T03:27:57;14.10;;;3.57;;
23642;SDS011;11998;55.788;37.572;2023-04-21T03:29:00;9.17;;;3.10;;
23642;SDS011;11998;55.788;37.572;2023-04-21T03:30:01;4.03;;;2.83;;
23642;SDS011;11998;55.788;37.572;2023-04-21T03:31:02;5.47;;;3.07;;
23642;SDS011;11998;55.788;37.572;2023-04-21T03:32:02;7.77;;;3.10;;
23642;SDS011;11998;55.788;37.572;2023-04-21T03:33:03;5.23;;;3.00;;
23642;SDS011;11998;55.788;37.572;2023-04-21T03:34:04;7.33;;;3.10;;
23642;SDS011;11998;55.788;37.572;2023-04-21T03:35:04;5.77;;;3.10;;
23642;SDS011;11998;55.788;37.572;2023-04-21T03:36:05;6.17;;;2.83;;
23642;SDS011;11998;55.788;37.572;2023-04-21T03:37:06;6.83;;;2.73;;
23642;SDS011;11998;55.788;37.572;2023-04-21T03:38:06;3.87;;;2.47;;
23642;SDS011;11998;55.788;37.572;2023-04-21T03:39:07;4.53;;;2.70;;
23642;SDS011;11998;55.788;37.572;2023-04-21T03:40:08;8.27;;;2.90;;
23642;SDS011;11998;55.788;37.572;2023-04-21T03:41:09;9.70;;;3.00;;
23642;SDS011;11998;55.788;37.572;2023-04-21T03:42:10;9.38;;;3.00;;
23642;SDS011;11998;55.788;37.572;2023-04-21T03:43:10;4.93;;;2.95;;
23642;SDS011;11998;55.788;37.572;2023-04-21T03:44:11;4.90;;;3.10;;
23642;SDS011;11998;55.788;37.572;2023-04-21T03:45:11;4.25;;;3.15;;
23642;SDS011;11998;55.788;37.572;2023-04-21T03:46:21;9.63;;;3.10;;
23642;SDS011;11998;55.788;37.572;2023-04-21T03:47:22;6.63;;;2.90;;
23642;SDS011;11998;55.788;37.572;2023-04-21T03:48:22;7.13;;;3.22;;
23642;SDS011;11998;55.788;37.572;2023-04-21T03:49:23;5.72;;;3.05;;
23642;SDS011;11998;55.788;37.572;2023-04-21T03:50:23;7.10;;;3.35;;
23642;SDS011;11998;55.788;37.572;2023-04-21T03:51:24;3.97;;;2.38;;
23642;SDS011;11998;55.788;37.572;2023-04-21T03:52:28;7.30;;;3.30;;
23642;SDS011;11998;55.788;37.572;2023-04-21T03:53:29;5.13;;;3.20;;
23642;SDS011;11998;55.788;37.572;2023-04-21T03:54:29;8.93;;;3.20;;
23642;SDS011;11998;55.788;37.572;2023-04-21T03:55:30;6.80;;;2.78;;
23642;SDS011;11998;55.788;37.572;2023-04-21T03:56:30;4.90;;;2.97;;
23642;SDS011;11998;55.788;37.572;2023-04-21T03:57:31;6.07;;;2.95;;
23642;SDS011;11998;55.788;37.572;2023-04-21T03:58:31;7.85;;;3.20;;
23642;SDS011;11998;55.788;37.572;2023-04-21T03:59:32;3.63;;;2.83;;
23642;SDS011;11998;55.788;37.572;2023-04-21T04:00:33;6.40;;;2.72;;
23642;SDS011;11998;55.788;37.572;2023-04-21T04:01:33;4.95;;;2.80;;
23642;SDS011;11998;55.788;37.572;2023-04-21T04:02:34;5.72;;;2.80;;
23642;SDS011;11998;55.788;37.572;2023-04-21T04:03:35;6.28;;;2.70;;
23642;SDS011;11998;55.788;37.572;2023-04-21T04:04:36;3.00;;;2.47;;
23642;SDS011;11998;55.788;37.572;2023-04-21T04:05:36;6.40;;;2.83;;
23642;SDS011;11998;55.788;37.572;2023-04-21T04:06:37;4.28;;;2.88;;
23642;SDS011;11998;55.788;37.572;2023-04-21T04:07:37;5.60;;;2.75;;
23642;SDS011;11998;55.788;37.572;2023-04-21T04:08:38;5.30;;;2.70;;
23642;SDS011;11998;55.788;37.572;2023-04-21T04:09:39;6.15;;;3.08;;
23642;SDS011;11998;55.788;37.572;2023-04-21T04:10:39;6.63;;;2.90;;
23642;SDS011;11998;55.788;37.572;2023-04-21T04:11:40;6.15;;;3.00;;
23642;SDS011;11998;55.788;37.572;2023-04-21T04:12:40;3.85;;;2.63;;
23642;SDS011;11998;55.788;37.572;2023-04-21T04:13:40;4.65;;;2.67;;
23642;SDS011;11998;55.788;37.572;2023-04-21T04:14:41;5.75;;;2.70;;
23642;SDS011;11998;55.788;37.572;2023-04-21T04:15:42;7.22;;;2.78;;
23642;SDS011;11998;55.788;37.572;2023-04-21T04:16:42;3.40;;;2.65;;
23642;SDS011;11998;55.788;37.572;2023-04-21T04:17:42;5.50;;;2.63;;
23642;SDS011;11998;55.788;37.572;2023-04-21T04:18:43;7.45;;;2.85;;
23642;SDS011;11998;55.788;37.572;2023-04-21T04:19:44;4.32;;;2.38;;
23642;SDS011;11998;55.788;37.572;2023-04-21T04:20:45;7.00;;;2.60;;
23642;SDS011;11998;55.788;37.572;2023-04-21T04:21:45;6.45;;;2.78;;
23642;SDS011;11998;55.788;37.572;2023-04-21T04:22:46;4.07;;;2.80;;
23642;SDS011;11998;55.788;37.572;2023-04-21T04:23:48;6.70;;;2.55;;
23642;SDS011;11998;55.788;37.572;2023-04-21T04:24:51;3.90;;;2.60;;
23642;SDS011;11998;55.788;37.572;2023-04-21T04:25:52;4.07;;;2.67;;
23642;SDS011;11998;55.788;37.572;2023-04-21T04:26:52;4.00;;;2.80;;
23642;SDS011;11998;55.788;37.572;2023-04-21T04:27:57;5.25;;;3.03;;
23642;SDS011;11998;55.788;37.572;2023-04-21T04:28:57;6.85;;;3.20;;
23642;SDS011;11998;55.788;37.572;2023-04-21T04:29:59;7.53;;;2.65;;
23642;SDS011;11998;55.788;37.572;2023-04-21T04:30:59;9.73;;;2.88;;
23642;SDS011;11998;55.788;37.572;2023-04-21T04:32:02;5.53;;;2.88;;
23642;SDS011;11998;55.788;37.572;2023-04-21T04:33:03;6.88;;;3.63;;
23642;SDS011;11998;55.788;37.572;2023-04-21T04:34:04;6.28;;;2.70;;
23642;SDS011;11998;55.788;37.572;2023-04-21T04:35:06;5.38;;;2.60;;
23642;SDS011;11998;55.788;37.572;2023-04-21T04:36:07;7.43;;;2.80;;
23642;SDS011;11998;55.788;37.572;2023-04-21T04:37:08;5.65;;;2.53;;
23642;SDS011;11998;55.788;37.572;2023-04-21T04:38:10;7.85;;;2.85;;
23642;SDS011;11998;55.788;37.572;2023-04-21T04:39:11;5.80;;;2.70;;
23642;SDS011;11998;55.788;37.572;2023-04-21T04:40:12;5.43;;;2.53;;
23642;SDS011;11998;55.788;37.572;2023-04-21T04:41:13;4.32;;;2.63;;
23642;SDS011;11998;55.788;37.572;2023-04-21T04:42:14;2.90;;;2.60;;
23642;SDS011;11998;55.788;37.572;2023-04-21T04:43:15;2.92;;;2.03;;
23642;SDS011;11998;55.788;37.572;2023-04-21T04:44:16;3.50;;;1.98;;
23642;SDS011;11998;55.788;37.572;2023-04-21T04:45:17;7.60;;;2.35;;
23642;SDS011;11998;55.788;37.572;2023-04-21T04:46:21;6.97;;;2.83;;
23642;SDS011;11998;55.788;37.572;2023-04-21T04:47:21;3.60;;;2.42;;
23642;SDS011;11998;55.788;37.572;2023-04-21T04:48:22;8.27;;;2.88;;
23642;SDS011;11998;55.788;37.572;2023-04-21T04:49:23;6.47;;;2.75;;
23642;SDS011;11998;55.788;37.572;2023-04-21T04:50:23;3.88;;;2.78;;
23642;SDS011;11998;55.788;37.572;2023-04-21T04:51:24;5.47;;;2.50;;
23642;SDS011;11998;55.788;37.572;2023-04-21T04:52:25;4.97;;;2.35;;
23642;SDS011;11998;55.788;37.572;2023-04-21T04:53:29;4.60;;;2.40;;
23642;SDS011;11998;55.788;37.572;2023-04-21T04:54:29;3.85;;;2.10;;
23642;SDS011;11998;55.788;37.572;2023-04-21T04:55:30;4.57;;;2.50;;
23642;SDS011;11998;55.788;37.572;2023-04-21T04:56:30;5.28;;;2.40;;
23642;SDS011;11998;55.788;37.572;2023-04-21T04:57:31;4.50;;;2.20;;
23642;SDS011;11998;55.788;37.572;2023-04-21T04:58:31;4.78;;;2.42;;
23642;SDS011;11998;55.788;37.572;2023-04-21T04:59:32;4.15;;;1.95;;
23642;SDS011;11998;55.788;37.572;2023-04-21T05:00:32;6.75;;;2.28;;
23642;SDS011;11998;55.788;37.572;2023-04-21T05:01:33;7.82;;;2.75;;
23642;SDS011;11998;55.788;37.572;2023-04-21T05:02:34;3.92;;;2.20;;
23642;SDS011;11998;55.788;37.572;2023-04-21T05:03:34;4.72;;;2.60;;
23642;SDS011;11998;55.788;37.572;2023-04-21T05:04:35;6.53;;;2.30;;
23642;SDS011;11998;55.788;37.572;2023-04-21T05:05:36;5.65;;;2.53;;
23642;SDS011;11998;55.788;37.572;2023-04-21T05:06:36;4.97;;;2.25;;
23642;SDS011;11998;55.788;37.572;2023-04-21T05:07:36;8.50;;;2.60;;
23642;SDS011;11998;55.788;37.572;2023-04-21T05:08:37;6.88;;;2.13;;
23642;SDS011;11998;55.788;37.572;2023-04-21T05:09:39;5.78;;;2.60;;
23642;SDS011;11998;55.788;37.572;2023-04-21T05:10:39;3.92;;;2.40;;
23642;SDS011;11998;55.788;37.572;2023-04-21T05:11:40;4.72;;;2.25;;
23642;SDS011;11998;55.788;37.572;2023-04-21T05:12:40;7.47;;;2.30;;
23642;SDS011;11998;55.788;37.572;2023-04-21T05:13:41;7.38;;;2.33;;
23642;SDS011;11998;55.788;37.572;2023-04-21T05:14:42;4.75;;;2.22;;
23642;SDS011;11998;55.788;37.572;2023-04-21T05:15:42;3.45;;;2.38;;
23642;SDS011;11998;55.788;37.572;2023-04-21T05:16:43;7.25;;;2.50;;
23642;SDS011;11998;55.788;37.572;2023-04-21T05:17:43;5.47;;;2.30;;
23642;SDS011;11998;55.788;37.572;2023-04-21T05:18:44;6.80;;;2.50;;
23642;SDS011;11998;55.788;37.572;2023-04-21T05:19:44;5.60;;;2.72;;
23642;SDS011;11998;55.788;37.572;2023-04-21T05:20:45;3.00;;;2.25;;
23642;SDS011;11998;55.788;37.572;2023-04-21T05:21:46;5.90;;;2.10;;
23642;SDS011;11998;55.788;37.572;2023-04-21T05:22:46;6.28;;;2.65;;
23642;SDS011;11998;55.788;37.572;2023-04-21T05:23:47;4.25;;;2.03;;
23642;SDS011;11998;55.788;37.572;2023-04-21T05:24:47;5.13;;;2.08;;
23642;SDS011;11998;55.788;37.572;2023-04-21T05:25:50;3.80;;;2.38;;
23642;SDS011;11998;55.788;37.572;2023-04-21T05:26:51;7.93;;;2.15;;
23642;SDS011;11998;55.788;37.572;2023-04-21T05:27:51;5.47;;;2.33;;
23642;SDS011;11998;55.788;37.572;2023-04-21T05:28:52;5.75;;;2.40;;
23642;SDS011;11998;55.788;37.572;2023-04-21T05:29:53;5.63;;;2.13;;
23642;SDS011;11998;55.788;37.572;2023-04-21T05:30:54;5.38;;;1.98;;
23642;SDS011;11998;55.788;37.572;2023-04-21T05:31:55;4.65;;;2.25;;
23642;SDS011;11998;55.788;37.572;2023-04-21T05:32:55;4.15;;;2.03;;
23642;SDS011;11998;55.788;37.572;2023-04-21T05:33:56;3.63;;;2.00;;
23642;SDS011;11998;55.788;37.572;2023-04-21T05:34:56;3.25;;;2.33;;
23642;SDS011;11998;55.788;37.572;2023-04-21T05:35:58;5.25;;;2.00;;
23642;SDS011;11998;55.788;37.572;2023-04-21T05:36:59;11.38;;;2.17;;
23642;SDS011;11998;55.788;37.572;2023-04-21T05:37:59;3.58;;;2.10;;
23642;SDS011;11998;55.788;37.572;2023-04-21T05:39:00;5.03;;;2.38;;
23642;SDS011;11998;55.788;37.572;2023-04-21T05:40:01;7.55;;;2.28;;
23642;SDS011;11998;55.788;37.572;2023-04-21T05:41:02;3.50;;;2.40;;
23642;SDS011;11998;55.788;37.572;2023-04-21T05:42:02;5.97;;;2.50;;
23642;SDS011;11998;55.788;37.572;2023-04-21T05:43:03;3.65;;;2.30;;
23642;SDS011;11998;55.788;37.572;2023-04-21T05:44:04;5.68;;;2.35;;
23642;SDS011;11998;55.788;37.572;2023-04-21T05:45:05;7.82;;;2.58;;
23642;SDS011;11998;55.788;37.572;2023-04-21T05:46:09;5.88;;;2.40;;
23642;SDS011;11998;55.788;37.572;2023-04-21T05:47:12;5.78;;;2.42;;
23642;SDS011;11998;55.788;37.572;2023-04-21T05:48:12;3.13;;;2.13;;
23642;SDS011;11998;55.788;37.572;2023-04-21T05:49:13;2.90;;;2.47;;
23642;SDS011;11998;55.788;37.572;2023-04-21T05:50:13;3.88;;;2.55;;
23642;SDS011;11998;55.788;37.572;2023-04-21T05:51:15;5.30;;;2.70;;
23642;SDS011;11998;55.788;37.572;2023-04-21T05:52:16;3.60;;;2.35;;
23642;SDS011;11998;55.788;37.572;2023-04-21T05:53:16;7.25;;;2.55;;
23642;SDS011;11998;55.788;37.572;2023-04-21T05:54:17;2.80;;;2.40;;
23642;SDS011;11998;55.788;37.572;2023-04-21T05:55:18;2.78;;;2.05;;
23642;SDS011;11998;55.788;37.572;2023-04-21T05:56:18;2.50;;;2.30;;
23642;SDS011;11998;55.788;37.572;2023-04-21T05:57:19;6.03;;;2.40;;
23642;SDS011;11998;55.788;37.572;2023-04-21T05:58:20;3.45;;;2.15;;
23642;SDS011;11998;55.788;37.572;2023-04-21T05:59:20;5.15;;;2.00;;
23642;SDS011;11998;55.788;37.572;2023-04-21T06:00:21;9.88;;;2.63;;
23642;SDS011;11998;55.788;37.572;2023-04-21T06:01:22;6.55;;;2.40;;
23642;SDS011;11998;55.788;37.572;2023-04-21T06:02:22;8.25;;;2.05;;
23642;SDS011;11998;55.788;37.572;2023-04-21T06:03:23;5.93;;;2.28;;
23642;SDS011;11998;55.788;37.572;2023-04-21T06:04:23;2.67;;;1.90;;
23642;SDS011;11998;55.788;37.572;2023-04-21T06:05:24;3.20;;;2.20;;